createdAt,value
2019-03-15T00:00:30.690Z,79.14
2019-03-15T00:01:30.652Z,78.96
2019-03-15T00:02:30.749Z,78.96
2019-03-15T00:03:30.748Z,78.38
2019-03-15T00:04:30.657Z,77.43
2019-03-15T00:05:30.669Z,77.53
2019-03-15T00:06:30.678Z,77.62
2019-03-15T00:07:30.758Z,77.72
2019-03-15T00:08:31.330Z,77.62
2019-03-15T00:09:30.722Z,77.72
2019-03-15T00:10:30.702Z,77.72
2019-03-15T00:11:30.691Z,77.53
2019-03-15T00:12:30.731Z,77.72
2019-03-15T00:13:30.714Z,77.62
2019-03-15T00:14:30.727Z,77.43
2019-03-15T00:15:30.735Z,77.43
2019-03-15T00:16:30.724Z,77.53
2019-03-15T00:17:30.722Z,77.62
2019-03-15T00:18:30.756Z,77.53
2019-03-15T00:19:30.735Z,77.91
2019-03-15T00:20:30.725Z,77.62
2019-03-15T00:21:30.773Z,77.43
2019-03-15T00:22:30.752Z,77.53
2019-03-15T00:23:30.895Z,76.96
2019-03-15T00:24:30.749Z,77.43
2019-03-15T00:25:30.803Z,76.96
2019-03-15T00:26:30.747Z,77.53
2019-03-15T00:27:30.758Z,77.62
2019-03-15T00:28:30.767Z,77.53
2019-03-15T00:29:30.866Z,77.53
2019-03-15T00:30:30.777Z,77.53
2019-03-15T00:31:30.775Z,77.62
2019-03-15T00:32:30.795Z,77.62
2019-03-15T00:33:30.799Z,77.34
2019-03-15T00:34:30.797Z,77.72
2019-03-15T00:35:31.014Z,77.05
2019-03-15T00:36:30.819Z,77.62
2019-03-15T00:37:30.911Z,76.96
2019-03-15T00:38:30.813Z,77.15
2019-03-15T00:39:30.899Z,77.53
2019-03-15T00:40:30.972Z,76.96
2019-03-15T00:41:30.814Z,77.72
2019-03-15T00:42:30.852Z,77.34
2019-03-15T00:43:30.857Z,77.62
2019-03-15T00:44:30.869Z,77.05
2019-03-15T00:45:30.853Z,76.67
2019-03-15T00:46:30.897Z,76.67
2019-03-15T00:47:30.853Z,76.86
2019-03-15T00:48:30.856Z,77.05
2019-03-15T00:49:30.864Z,76.57
2019-03-15T00:50:30.857Z,77.24
2019-03-15T00:51:30.901Z,77.24
2019-03-15T00:52:30.855Z,77.15
2019-03-15T00:53:30.876Z,77.24
2019-03-15T00:54:30.886Z,77.24
2019-03-15T00:55:30.895Z,77.15
2019-03-15T00:56:30.894Z,77.15
2019-03-15T00:57:30.954Z,77.05
2019-03-15T00:58:30.918Z,76.67
2019-03-15T00:59:30.903Z,77.05
2019-03-15T01:00:30.931Z,76.67
2019-03-15T01:01:30.914Z,76.39
2019-03-15T01:02:30.919Z,76.48
2019-03-15T01:03:30.958Z,76.39
2019-03-15T01:04:30.923Z,76.39
2019-03-15T01:05:30.957Z,76.57
2019-03-15T01:06:31.058Z,76.20
2019-03-15T01:07:30.960Z,76.67
2019-03-15T01:08:30.986Z,76.67
2019-03-15T01:09:30.967Z,76.20
2019-03-15T01:10:30.963Z,76.39
2019-03-15T01:11:30.954Z,76.39
2019-03-15T01:12:31.011Z,76.10
2019-03-15T01:13:30.963Z,76.20
2019-03-15T01:14:30.979Z,76.29
2019-03-15T01:15:30.972Z,76.29
2019-03-15T01:16:30.980Z,76.10
2019-03-15T01:17:30.973Z,75.72
2019-03-15T01:18:31.018Z,75.43
2019-03-15T01:19:31.003Z,76.10
2019-03-15T01:20:30.993Z,75.91
2019-03-15T01:21:31.012Z,75.43
2019-03-15T01:22:31.006Z,75.43
2019-03-15T01:23:31.058Z,75.34
2019-03-15T01:24:31.029Z,75.53
2019-03-15T01:25:31.022Z,75.34
2019-03-15T01:26:31.024Z,75.34
2019-03-15T01:27:31.047Z,75.81
2019-03-15T01:28:31.061Z,75.05
2019-03-15T01:29:31.085Z,75.15
2019-03-15T01:30:31.064Z,75.53
2019-03-15T01:31:31.044Z,75.05
2019-03-15T01:32:31.044Z,75.43
2019-03-15T01:33:31.037Z,75.05
2019-03-15T01:34:31.082Z,75.15
2019-03-15T01:35:33.669Z,75.05
2019-03-15T01:36:31.061Z,75.05
2019-03-15T01:37:31.105Z,75.43
2019-03-15T01:38:31.121Z,75.15
2019-03-15T01:39:31.099Z,74.87
2019-03-15T01:40:31.102Z,75.34
2019-03-15T01:41:31.102Z,75.34
2019-03-15T01:42:31.112Z,75.34
2019-03-15T01:43:31.118Z,74.87
2019-03-15T01:44:31.119Z,75.15
2019-03-15T01:45:31.130Z,75.05
2019-03-15T01:46:31.114Z,75.24
2019-03-15T01:47:31.151Z,75.24
2019-03-15T01:48:31.158Z,74.96
2019-03-15T01:49:31.208Z,75.15
2019-03-15T01:50:31.149Z,74.43
2019-03-15T01:51:31.223Z,74.87
2019-03-15T01:52:31.135Z,75.05
2019-03-15T01:53:31.132Z,74.39
2019-03-15T01:54:31.175Z,74.67
2019-03-15T01:55:31.144Z,74.67
2019-03-15T01:56:31.185Z,75.34
2019-03-15T01:57:31.158Z,75.24
2019-03-15T01:58:31.204Z,75.62
2019-03-15T01:59:31.164Z,75.15
2019-03-15T02:00:31.171Z,74.77
2019-03-15T02:01:31.177Z,74.96
2019-03-15T02:02:31.172Z,75.05
2019-03-15T02:03:31.192Z,74.96
2019-03-15T02:04:31.904Z,74.87
2019-03-15T02:05:31.197Z,75.34
2019-03-15T02:06:31.208Z,75.24
2019-03-15T02:07:31.200Z,75.53
2019-03-15T02:08:31.207Z,75.24
2019-03-15T02:09:31.213Z,75.62
2019-03-15T02:10:31.239Z,75.24
2019-03-15T02:11:31.215Z,75.91
2019-03-15T02:12:31.239Z,75.62
2019-03-15T02:13:31.237Z,75.72
2019-03-15T02:14:31.243Z,75.62
2019-03-15T02:15:31.289Z,76.29
2019-03-15T02:16:31.237Z,76.39
2019-03-15T02:17:31.286Z,76.42
2019-03-15T02:18:31.245Z,76.57
2019-03-15T02:19:31.280Z,76.86
2019-03-15T02:20:31.261Z,76.57
2019-03-15T02:21:31.340Z,76.76
2019-03-15T02:22:31.264Z,77.15
2019-03-15T02:23:31.284Z,76.67
2019-03-15T02:24:31.285Z,76.67
2019-03-15T02:25:31.285Z,76.29
2019-03-15T02:26:31.292Z,76.48
2019-03-15T02:27:31.316Z,76.20
2019-03-15T02:28:31.306Z,76.39
2019-03-15T02:29:31.309Z,76.01
2019-03-15T02:30:31.320Z,76.48
2019-03-15T02:31:31.350Z,76.39
2019-03-15T02:32:31.340Z,76.67
2019-03-15T02:33:32.517Z,76.29
2019-03-15T02:34:31.339Z,76.10
2019-03-15T02:35:31.351Z,76.76
2019-03-15T02:36:31.311Z,76.48
2019-03-15T02:37:31.367Z,76.10
2019-03-15T02:38:31.322Z,76.01
2019-03-15T02:39:31.341Z,76.20
2019-03-15T02:40:31.341Z,76.01
2019-03-15T02:41:32.055Z,76.10
2019-03-15T02:42:31.408Z,75.91
2019-03-15T02:43:31.358Z,75.91
2019-03-15T02:44:31.403Z,76.10
2019-03-15T02:45:31.483Z,75.91
2019-03-15T02:46:31.406Z,76.86
2019-03-15T02:47:31.379Z,76.86
2019-03-15T02:48:31.394Z,76.76
2019-03-15T02:49:31.442Z,77.24
2019-03-15T02:50:31.408Z,76.76
2019-03-15T02:51:31.413Z,76.48
2019-03-15T02:52:31.417Z,76.67
2019-03-15T02:53:31.425Z,76.76
2019-03-15T02:54:31.483Z,77.05
2019-03-15T02:55:31.418Z,76.76
2019-03-15T02:56:31.453Z,76.96
2019-03-15T02:57:31.440Z,76.57
2019-03-15T02:58:31.488Z,76.48
2019-03-15T02:59:31.465Z,76.57
2019-03-15T03:00:31.432Z,76.01
2019-03-15T03:01:31.439Z,76.39
2019-03-15T03:02:31.440Z,76.39
2019-03-15T03:03:31.485Z,76.01
2019-03-15T03:04:31.453Z,76.20
2019-03-15T03:05:31.450Z,76.39
2019-03-15T03:06:31.467Z,75.91
2019-03-15T03:07:31.494Z,76.20
2019-03-15T03:08:31.489Z,76.20
2019-03-15T03:09:31.503Z,76.01
2019-03-15T03:10:31.492Z,76.39
2019-03-15T03:11:31.503Z,76.20
2019-03-15T03:12:31.499Z,76.33
2019-03-15T03:13:31.517Z,76.29
2019-03-15T03:14:31.521Z,75.62
2019-03-15T03:15:31.521Z,75.91
2019-03-15T03:16:31.514Z,76.10
2019-03-15T03:17:31.529Z,76.10
2019-03-15T03:18:31.542Z,75.72
2019-03-15T03:19:31.540Z,75.15
2019-03-15T03:20:31.568Z,75.43
2019-03-15T03:21:31.555Z,75.43
2019-03-15T03:22:31.526Z,75.81
2019-03-15T03:23:31.567Z,75.34
2019-03-15T03:24:31.529Z,74.87
2019-03-15T03:25:31.538Z,74.67
2019-03-15T03:26:31.555Z,74.67
2019-03-15T03:27:31.550Z,74.77
2019-03-15T03:28:31.581Z,74.48
2019-03-15T03:29:31.570Z,74.39
2019-03-15T03:30:31.561Z,74.77
2019-03-15T03:31:31.598Z,75.05
2019-03-15T03:32:31.585Z,75.62
2019-03-15T03:33:31.611Z,75.53
2019-03-15T03:34:31.592Z,75.43
2019-03-15T03:35:31.653Z,76.10
2019-03-15T03:36:31.661Z,76.39
2019-03-15T03:37:31.606Z,76.76
2019-03-15T03:38:31.616Z,76.20
2019-03-15T03:39:31.591Z,76.67
2019-03-15T03:40:31.597Z,76.96
2019-03-15T03:41:31.648Z,77.24
2019-03-15T03:42:31.650Z,76.96
2019-03-15T03:43:31.620Z,77.53
2019-03-15T03:44:31.627Z,77.72
2019-03-15T03:45:31.631Z,77.43
2019-03-15T03:46:31.651Z,77.62
2019-03-15T03:47:32.859Z,77.81
2019-03-15T03:48:31.646Z,77.62
2019-03-15T03:49:31.660Z,77.43
2019-03-15T03:50:31.660Z,77.62
2019-03-15T03:51:31.656Z,77.24
2019-03-15T03:52:31.729Z,77.05
2019-03-15T03:53:31.669Z,77.05
2019-03-15T03:54:31.672Z,77.15
2019-03-15T03:55:31.693Z,76.67
2019-03-15T03:56:31.691Z,77.24
2019-03-15T03:57:31.680Z,76.96
2019-03-15T03:58:31.699Z,77.34
2019-03-15T03:59:31.746Z,77.15
2019-03-15T04:00:31.732Z,77.05
2019-03-15T04:01:31.749Z,77.53
2019-03-15T04:02:33.038Z,77.15
2019-03-15T04:03:31.769Z,76.96
2019-03-15T04:04:31.751Z,77.05
2019-03-15T04:05:31.713Z,76.96
2019-03-15T04:06:31.734Z,77.72
2019-03-15T04:07:31.720Z,77.53
2019-03-15T04:08:31.773Z,77.62
2019-03-15T04:09:31.750Z,77.72
2019-03-15T04:10:31.759Z,77.53
2019-03-15T04:11:31.740Z,77.53
2019-03-15T04:12:31.748Z,77.81
2019-03-15T04:13:31.768Z,77.43
2019-03-15T04:14:31.785Z,77.72
2019-03-15T04:15:31.758Z,77.53
2019-03-15T04:16:31.772Z,77.15
2019-03-15T04:17:31.782Z,77.05
2019-03-15T04:18:31.769Z,77.15
2019-03-15T04:19:31.802Z,76.96
2019-03-15T04:20:31.765Z,77.53
2019-03-15T04:21:31.815Z,77.43
2019-03-15T04:22:31.793Z,77.24
2019-03-15T04:23:31.813Z,77.43
2019-03-15T04:24:31.832Z,77.15
2019-03-15T04:25:31.814Z,77.24
2019-03-15T04:26:31.809Z,77.34
2019-03-15T04:27:32.060Z,76.96
2019-03-15T04:28:31.837Z,76.10
2019-03-15T04:29:31.862Z,76.67
2019-03-15T04:30:31.852Z,76.86
2019-03-15T04:31:31.820Z,76.76
2019-03-15T04:32:32.127Z,75.91
2019-03-15T04:33:31.839Z,75.43
2019-03-15T04:34:31.879Z,74.96
2019-03-15T04:35:31.854Z,75.62
2019-03-15T04:36:31.901Z,75.34
2019-03-15T04:37:31.869Z,75.34
2019-03-15T04:38:31.861Z,75.43
2019-03-15T04:39:31.878Z,75.53
2019-03-15T04:40:32.019Z,75.05
2019-03-15T04:41:31.893Z,75.24
2019-03-15T04:42:31.910Z,75.53
2019-03-15T04:43:31.874Z,75.24
2019-03-15T04:44:31.892Z,75.72
2019-03-15T04:45:31.890Z,75.62
2019-03-15T04:46:31.922Z,75.43
2019-03-15T04:47:31.884Z,75.43
2019-03-15T04:48:31.907Z,75.72
2019-03-15T04:49:31.935Z,75.53
2019-03-15T04:50:31.910Z,75.62
2019-03-15T04:51:31.940Z,75.34
2019-03-15T04:52:31.948Z,75.53
2019-03-15T04:53:31.924Z,75.62
2019-03-15T04:54:31.926Z,75.62
2019-03-15T04:55:31.936Z,75.43
2019-03-15T04:56:31.956Z,75.34
2019-03-15T04:57:31.955Z,75.43
2019-03-15T04:58:31.972Z,75.62
2019-03-15T04:59:31.995Z,75.53
2019-03-15T05:00:31.957Z,75.24
2019-03-15T05:01:31.961Z,75.15
2019-03-15T05:02:31.986Z,74.96
2019-03-15T05:03:31.997Z,75.05
2019-03-15T05:04:31.983Z,74.67
2019-03-15T05:05:31.966Z,75.05
2019-03-15T05:06:31.968Z,74.96
2019-03-15T05:07:31.997Z,74.29
2019-03-15T05:08:32.003Z,74.96
2019-03-15T05:09:32.011Z,75.15
2019-03-15T05:10:32.039Z,75.05
2019-03-15T05:11:32.041Z,74.39
2019-03-15T05:12:31.994Z,74.58
2019-03-15T05:13:32.001Z,74.39
2019-03-15T05:14:32.010Z,74.48
2019-03-15T05:15:32.016Z,74.67
2019-03-15T05:16:32.036Z,75.05
2019-03-15T05:17:32.064Z,74.58
2019-03-15T05:18:32.056Z,74.39
2019-03-15T05:19:32.186Z,74.67
2019-03-15T05:20:32.032Z,74.67
2019-03-15T05:21:32.092Z,74.29
2019-03-15T05:22:32.058Z,74.29
2019-03-15T05:23:32.067Z,75.05
2019-03-15T05:24:32.085Z,74.87
2019-03-15T05:25:32.095Z,74.87
2019-03-15T05:26:32.094Z,75.34
2019-03-15T05:27:32.101Z,75.43
2019-03-15T05:28:32.098Z,75.53
2019-03-15T05:29:32.085Z,75.24
2019-03-15T05:30:32.127Z,75.91
2019-03-15T05:31:32.095Z,75.53
2019-03-15T05:32:32.132Z,76.10
2019-03-15T05:33:32.093Z,76.10
2019-03-15T05:34:32.093Z,76.10
2019-03-15T05:35:32.200Z,76.01
2019-03-15T05:36:32.114Z,76.57
2019-03-15T05:37:32.148Z,77.15
2019-03-15T05:38:34.663Z,76.76
2019-03-15T05:39:32.143Z,76.96
2019-03-15T05:40:32.146Z,76.57
2019-03-15T05:41:32.167Z,77.05
2019-03-15T05:42:32.189Z,77.43
2019-03-15T05:43:32.148Z,77.43
2019-03-15T05:44:32.141Z,76.96
2019-03-15T05:45:32.167Z,77.81
2019-03-15T05:46:32.186Z,77.62
2019-03-15T05:47:32.181Z,78.38
2019-03-15T05:48:32.182Z,78.19
2019-03-15T05:49:32.188Z,78.48
2019-03-15T05:50:32.193Z,79.14
2019-03-15T05:51:32.226Z,78.77
2019-03-15T05:52:32.189Z,79.33
2019-03-15T05:53:32.187Z,79.24
2019-03-15T05:54:32.199Z,79.24
2019-03-15T05:55:32.212Z,79.81
2019-03-15T05:56:32.211Z,79.52
2019-03-15T05:57:32.229Z,79.52
2019-03-15T05:58:32.208Z,80.00
2019-03-15T05:59:32.257Z,80.66
2019-03-15T06:00:32.288Z,80.57
2019-03-15T06:01:32.229Z,80.76
2019-03-15T06:02:32.262Z,80.76
2019-03-15T06:03:32.299Z,80.57
2019-03-15T06:04:32.273Z,80.76
2019-03-15T06:05:32.234Z,80.66
2019-03-15T06:06:32.471Z,81.05
2019-03-15T06:07:32.292Z,81.05
2019-03-15T06:08:32.251Z,80.38
2019-03-15T06:09:32.277Z,80.47
2019-03-15T06:10:32.268Z,80.29
2019-03-15T06:11:32.267Z,80.00
2019-03-15T06:12:32.294Z,79.72
2019-03-15T06:13:32.306Z,79.33
2019-03-15T06:14:32.268Z,79.81
2019-03-15T06:15:32.346Z,79.52
2019-03-15T06:16:32.304Z,78.48
2019-03-15T06:17:32.351Z,78.38
2019-03-15T06:18:32.309Z,78.77
2019-03-15T06:19:32.295Z,78.96
2019-03-15T06:20:32.311Z,78.38
2019-03-15T06:21:32.413Z,77.81
2019-03-15T06:22:32.322Z,77.72
2019-03-15T06:23:32.380Z,77.43
2019-03-15T06:24:32.363Z,77.72
2019-03-15T06:25:32.338Z,77.72
2019-03-15T06:26:32.337Z,77.81
2019-03-15T06:27:32.317Z,77.62
2019-03-15T06:28:32.390Z,77.72
2019-03-15T06:29:32.326Z,77.24
2019-03-15T06:30:32.527Z,77.43
2019-03-15T06:31:32.343Z,77.53
2019-03-15T06:32:32.366Z,77.15
2019-03-15T06:33:32.362Z,77.05
2019-03-15T06:34:32.730Z,77.05
2019-03-15T06:35:32.468Z,76.71
2019-03-15T06:36:32.390Z,77.19
2019-03-15T06:37:32.395Z,77.05
2019-03-15T06:38:33.627Z,77.15
2019-03-15T06:39:32.374Z,76.90
2019-03-15T06:40:32.478Z,76.71
2019-03-15T06:41:32.395Z,76.61
2019-03-15T06:42:32.631Z,77.00
2019-03-15T06:43:32.400Z,76.42
2019-03-15T06:44:32.459Z,76.42
2019-03-15T06:45:32.424Z,76.14
2019-03-15T06:46:32.496Z,75.67
2019-03-15T06:47:32.412Z,75.85
2019-03-15T06:48:32.432Z,76.33
2019-03-15T06:49:32.453Z,75.28
2019-03-15T06:50:32.509Z,75.67
2019-03-15T06:51:32.462Z,75.47
2019-03-15T06:52:32.446Z,75.76
2019-03-15T06:53:32.458Z,75.28
2019-03-15T06:54:32.479Z,74.80
2019-03-15T06:55:32.466Z,75.76
2019-03-15T06:56:32.506Z,75.38
2019-03-15T06:57:32.454Z,75.47
2019-03-15T06:58:32.486Z,74.43
2019-03-15T06:59:32.491Z,74.52
2019-03-15T07:00:32.542Z,74.14
2019-03-15T07:01:32.481Z,74.71
2019-03-15T07:02:32.483Z,74.65
2019-03-15T07:03:32.489Z,74.62
2019-03-15T07:04:32.496Z,74.84
2019-03-15T07:05:32.511Z,74.62
2019-03-15T07:06:32.544Z,74.99
2019-03-15T07:07:32.577Z,74.43
2019-03-15T07:08:32.522Z,74.71
2019-03-15T07:09:32.545Z,74.04
2019-03-15T07:10:32.599Z,73.76
2019-03-15T07:11:32.592Z,74.18
2019-03-15T07:12:32.550Z,74.84
2019-03-15T07:13:32.557Z,74.14
2019-03-15T07:14:32.568Z,74.04
2019-03-15T07:15:32.558Z,74.24
2019-03-15T07:16:32.586Z,74.08
2019-03-15T07:17:32.637Z,73.99
2019-03-15T07:18:32.562Z,74.08
2019-03-15T07:19:32.576Z,74.27
2019-03-15T07:20:32.604Z,74.27
2019-03-15T07:21:32.595Z,74.27
2019-03-15T07:22:32.639Z,73.51
2019-03-15T07:23:32.620Z,73.70
2019-03-15T07:24:32.687Z,74.18
2019-03-15T07:25:32.593Z,73.51
2019-03-15T07:26:32.638Z,73.32
2019-03-15T07:27:32.621Z,73.32
2019-03-15T07:28:32.658Z,73.61
2019-03-15T07:29:32.621Z,72.85
2019-03-15T07:30:32.620Z,72.75
2019-03-15T07:31:32.629Z,72.94
2019-03-15T07:32:32.644Z,72.85
2019-03-15T07:33:32.769Z,72.65
2019-03-15T07:34:32.646Z,72.65
2019-03-15T07:35:33.517Z,72.46
2019-03-15T07:36:32.656Z,72.17
2019-03-15T07:37:32.674Z,71.70
2019-03-15T07:38:32.709Z,71.36
2019-03-15T07:39:33.025Z,71.73
2019-03-15T07:40:32.704Z,71.45
2019-03-15T07:41:32.691Z,70.97
2019-03-15T07:42:32.681Z,70.78
2019-03-15T07:43:32.712Z,70.40
2019-03-15T07:44:32.686Z,70.59
2019-03-15T07:45:32.724Z,70.21
2019-03-15T07:46:32.708Z,70.02
2019-03-15T07:47:32.714Z,69.45
2019-03-15T07:48:32.717Z,70.21
2019-03-15T07:49:32.783Z,70.12
2019-03-15T07:50:32.755Z,69.48
2019-03-15T07:51:32.786Z,69.20
2019-03-15T07:52:32.800Z,69.01
2019-03-15T07:53:35.263Z,68.72
2019-03-15T07:54:37.798Z,68.05
2019-03-15T07:55:32.886Z,68.44
2019-03-15T07:56:32.750Z,68.53
2019-03-15T07:57:32.768Z,67.68
2019-03-15T07:58:33.564Z,67.86
2019-03-15T07:59:32.787Z,67.48
2019-03-15T08:00:32.801Z,67.77
2019-03-15T08:01:32.869Z,67.58
2019-03-15T08:02:32.778Z,68.24
2019-03-15T08:03:32.790Z,67.10
2019-03-15T08:04:35.776Z,67.20
2019-03-15T08:05:32.799Z,67.29
2019-03-15T08:06:35.104Z,66.63
2019-03-15T08:07:36.993Z,66.53
2019-03-15T08:08:32.972Z,66.53
2019-03-15T08:09:32.931Z,66.75
2019-03-15T08:10:32.837Z,66.56
2019-03-15T08:11:32.852Z,66.15
2019-03-15T08:12:32.850Z,66.47
2019-03-15T08:13:32.875Z,65.80
2019-03-15T08:14:32.921Z,66.18
2019-03-15T08:15:32.878Z,65.67
2019-03-15T08:16:34.548Z,65.10
2019-03-15T08:17:32.902Z,64.85
2019-03-15T08:18:32.926Z,65.39
2019-03-15T08:19:32.898Z,66.38
2019-03-15T08:20:32.898Z,65.10
2019-03-15T08:21:32.920Z,65.00
2019-03-15T08:22:32.990Z,65.70
2019-03-15T08:23:33.012Z,65.70
2019-03-15T08:24:32.947Z,65.33
2019-03-15T08:25:32.946Z,65.23
2019-03-15T08:26:32.952Z,64.28
2019-03-15T08:27:32.949Z,64.18
2019-03-15T08:28:32.992Z,63.51
2019-03-15T08:29:32.937Z,63.04
2019-03-15T08:30:32.986Z,63.23
2019-03-15T08:31:32.969Z,63.13
2019-03-15T08:32:32.978Z,63.13
2019-03-15T08:33:33.038Z,63.13
2019-03-15T08:34:32.973Z,62.46
2019-03-15T08:35:32.980Z,63.13
2019-03-15T08:36:32.990Z,63.04
2019-03-15T08:37:33.058Z,63.13
2019-03-15T08:38:42.363Z,63.04
2019-03-15T08:39:33.082Z,63.23
2019-03-15T08:40:33.014Z,62.94
2019-03-15T08:41:33.019Z,62.27
2019-03-15T08:42:34.691Z,62.84
2019-03-15T08:43:33.040Z,62.88
2019-03-15T08:44:33.034Z,63.07
2019-03-15T08:45:33.072Z,62.18
2019-03-15T08:46:33.062Z,62.59
2019-03-15T08:47:33.047Z,62.88
2019-03-15T08:48:33.116Z,63.35
2019-03-15T08:49:33.070Z,63.16
2019-03-15T08:50:33.119Z,62.94
2019-03-15T08:51:33.102Z,63.04
2019-03-15T08:52:33.090Z,63.32
2019-03-15T08:53:33.123Z,63.64
2019-03-15T08:54:33.108Z,63.73
2019-03-15T08:55:33.186Z,63.35
2019-03-15T08:56:33.117Z,63.51
2019-03-15T08:57:33.140Z,63.35
2019-03-15T08:58:33.132Z,63.42
2019-03-15T08:59:33.141Z,63.54
2019-03-15T09:00:33.155Z,63.26
2019-03-15T09:01:33.185Z,63.64
2019-03-15T09:02:33.186Z,63.54
2019-03-15T09:03:34.526Z,63.54
2019-03-15T09:04:33.191Z,63.60
2019-03-15T09:05:33.185Z,63.26
2019-03-15T09:06:33.206Z,63.32
2019-03-15T09:07:33.235Z,63.89
2019-03-15T09:08:33.214Z,63.83
2019-03-15T09:09:35.856Z,63.54
2019-03-15T09:10:33.229Z,63.45
2019-03-15T09:11:33.247Z,63.70
2019-03-15T09:12:33.231Z,63.51
2019-03-15T09:13:33.229Z,63.13
2019-03-15T09:14:33.211Z,63.23
2019-03-15T09:15:33.286Z,63.54
2019-03-15T09:16:33.315Z,63.45
2019-03-15T09:17:33.234Z,63.73
2019-03-15T09:18:33.381Z,64.12
2019-03-15T09:19:33.255Z,63.35
2019-03-15T09:20:33.318Z,63.92
2019-03-15T09:21:33.285Z,62.68
2019-03-15T09:22:33.269Z,63.07
2019-03-15T09:23:33.304Z,63.16
2019-03-15T09:24:33.280Z,63.16
2019-03-15T09:25:33.313Z,63.07
2019-03-15T09:26:33.375Z,62.49
2019-03-15T09:27:33.306Z,62.49
2019-03-15T09:28:33.706Z,62.49
2019-03-15T09:29:33.383Z,62.62
2019-03-15T09:30:33.318Z,62.81
2019-03-15T09:31:46.637Z,62.34
2019-03-15T09:32:33.370Z,63.00
2019-03-15T09:33:33.340Z,62.15
2019-03-15T09:34:33.359Z,61.29
2019-03-15T09:35:33.385Z,61.47
2019-03-15T09:36:34.087Z,61.86
2019-03-15T09:37:33.367Z,61.69
2019-03-15T09:38:33.381Z,61.13
2019-03-15T09:39:33.405Z,61.41
2019-03-15T09:40:33.446Z,61.89
2019-03-15T09:41:39.556Z,61.13
2019-03-15T09:42:33.425Z,60.84
2019-03-15T09:43:33.432Z,61.03
2019-03-15T09:44:33.414Z,60.84
2019-03-15T09:45:33.423Z,60.84
2019-03-15T09:46:33.456Z,60.74
2019-03-15T09:47:33.616Z,60.64
2019-03-15T09:48:33.448Z,60.74
2019-03-15T09:49:33.452Z,60.74
2019-03-15T09:50:40.333Z,60.27
2019-03-15T09:51:33.510Z,60.07
2019-03-15T09:52:33.473Z,60.90
2019-03-15T09:53:33.477Z,60.90
2019-03-15T09:54:33.510Z,60.81
2019-03-15T09:55:33.697Z,61.19
2019-03-15T09:56:35.341Z,61.19
2019-03-15T09:57:33.556Z,61.47
2019-03-15T09:58:33.508Z,61.47
2019-03-15T09:59:33.762Z,61.13
2019-03-15T10:00:33.520Z,61.19
2019-03-15T10:01:35.195Z,60.81
2019-03-15T10:02:33.570Z,61.22
2019-03-15T10:03:33.542Z,61.51
2019-03-15T10:04:35.967Z,61.41
2019-03-15T10:05:33.565Z,61.03
2019-03-15T10:06:33.553Z,60.46
2019-03-15T10:07:38.676Z,60.64
2019-03-15T10:08:33.579Z,60.64
2019-03-15T10:09:45.131Z,60.93
2019-03-15T10:10:33.592Z,60.84
2019-03-15T10:11:33.632Z,59.98
2019-03-15T10:12:33.712Z,60.27
2019-03-15T10:13:33.774Z,59.59
2019-03-15T10:14:33.619Z,59.98
2019-03-15T10:15:33.644Z,59.59
2019-03-15T10:16:33.657Z,59.12
2019-03-15T10:17:34.343Z,59.78
2019-03-15T10:18:33.654Z,60.10
2019-03-15T10:19:33.697Z,59.59
2019-03-15T10:20:33.663Z,59.22
2019-03-15T10:21:33.655Z,59.41
2019-03-15T10:22:33.691Z,58.58
2019-03-15T10:23:33.814Z,59.15
2019-03-15T10:24:33.736Z,59.63
2019-03-15T10:25:46.245Z,59.15
2019-03-15T10:26:33.805Z,59.15
2019-03-15T10:27:33.724Z,58.48
2019-03-15T10:28:33.752Z,57.71
2019-03-15T10:29:33.752Z,57.53
2019-03-15T10:30:33.780Z,57.14
2019-03-15T10:31:33.741Z,57.43
2019-03-15T10:32:33.745Z,57.53
2019-03-15T10:33:33.857Z,57.24
2019-03-15T10:34:35.736Z,57.46
2019-03-15T10:35:33.777Z,56.88
2019-03-15T10:36:34.793Z,56.88
2019-03-15T10:37:33.773Z,56.79
2019-03-15T10:38:33.783Z,56.79
2019-03-15T10:39:33.819Z,57.46
2019-03-15T10:40:33.878Z,57.17
2019-03-15T10:41:33.852Z,56.40
2019-03-15T10:42:33.906Z,56.60
2019-03-15T10:43:33.836Z,56.40
2019-03-15T10:44:33.872Z,56.50
2019-03-15T10:45:33.880Z,56.18
2019-03-15T10:46:33.945Z,56.57
2019-03-15T10:47:33.889Z,56.38
2019-03-15T10:48:33.930Z,56.69
2019-03-15T10:49:33.923Z,56.69
2019-03-15T10:50:33.935Z,56.50
2019-03-15T10:51:33.904Z,55.83
2019-03-15T10:52:33.897Z,55.61
2019-03-15T10:53:33.926Z,56.38
2019-03-15T10:54:33.912Z,56.31
2019-03-15T10:55:33.947Z,56.69
2019-03-15T10:56:33.975Z,56.28
2019-03-15T10:57:34.014Z,56.57
2019-03-15T10:58:34.024Z,56.47
2019-03-15T10:59:33.959Z,56.38
2019-03-15T11:00:33.967Z,56.18
2019-03-15T11:01:33.972Z,56.28
2019-03-15T11:02:33.989Z,56.38
2019-03-15T11:03:34.009Z,57.04
2019-03-15T11:04:34.063Z,57.24
2019-03-15T11:05:34.052Z,56.67
2019-03-15T11:06:34.011Z,56.76
2019-03-15T11:07:34.009Z,57.62
2019-03-15T11:08:34.017Z,57.62
2019-03-15T11:09:34.042Z,57.33
2019-03-15T11:10:34.107Z,57.53
2019-03-15T11:11:34.040Z,57.62
2019-03-15T11:12:34.052Z,57.71
2019-03-15T11:13:34.060Z,57.59
2019-03-15T11:14:34.053Z,57.62
2019-03-15T11:15:34.108Z,57.40
2019-03-15T11:16:34.131Z,57.62
2019-03-15T11:17:34.198Z,57.14
2019-03-15T11:18:34.100Z,57.33
2019-03-15T11:19:34.104Z,56.57
2019-03-15T11:20:34.170Z,57.65
2019-03-15T11:21:34.107Z,56.76
2019-03-15T11:22:34.170Z,56.28
2019-03-15T11:23:34.156Z,56.67
2019-03-15T11:24:34.239Z,56.38
2019-03-15T11:25:34.141Z,56.38
2019-03-15T11:26:34.174Z,56.67
2019-03-15T11:27:34.341Z,56.76
2019-03-15T11:28:34.347Z,55.74
2019-03-15T11:29:34.197Z,56.60
2019-03-15T11:30:34.291Z,56.02
2019-03-15T11:31:34.219Z,55.16
2019-03-15T11:32:34.198Z,56.15
2019-03-15T11:33:34.208Z,56.15
2019-03-15T11:34:34.289Z,55.76
2019-03-15T11:35:34.213Z,54.90
2019-03-15T11:36:34.263Z,54.61
2019-03-15T11:37:34.242Z,53.85
2019-03-15T11:38:34.275Z,54.23
2019-03-15T11:39:34.245Z,53.37
2019-03-15T11:40:34.698Z,53.18
2019-03-15T11:41:34.287Z,52.70
2019-03-15T11:42:34.274Z,53.02
2019-03-15T11:43:34.287Z,53.02
2019-03-15T11:44:34.304Z,52.54
2019-03-15T11:45:34.337Z,52.25
2019-03-15T11:46:34.325Z,52.06
2019-03-15T11:47:50.195Z,52.54
2019-03-15T11:48:34.319Z,51.77
2019-03-15T11:49:34.388Z,51.48
2019-03-15T11:50:34.391Z,51.58
2019-03-15T11:51:34.377Z,52.42
2019-03-15T11:52:34.364Z,52.44
2019-03-15T11:53:34.363Z,52.15
2019-03-15T11:54:34.395Z,52.44
2019-03-15T11:55:34.419Z,52.34
2019-03-15T11:56:34.384Z,52.03
2019-03-15T11:57:34.404Z,52.73
2019-03-15T11:58:34.392Z,52.51
2019-03-15T11:59:36.263Z,52.61
2019-03-15T12:00:34.421Z,53.02
2019-03-15T12:01:37.637Z,52.32
2019-03-15T12:02:34.463Z,52.80
2019-03-15T12:03:34.828Z,52.22
2019-03-15T12:04:34.499Z,52.42
2019-03-15T12:05:34.454Z,52.13
2019-03-15T12:06:34.473Z,52.51
2019-03-15T12:07:34.465Z,52.34
2019-03-15T12:08:34.507Z,52.34
2019-03-15T12:09:34.541Z,52.15
2019-03-15T12:10:34.586Z,52.34
2019-03-15T12:11:34.510Z,51.97
2019-03-15T12:12:34.520Z,51.97
2019-03-15T12:13:34.550Z,51.77
2019-03-15T12:14:41.034Z,51.77
2019-03-15T12:15:36.312Z,51.77
2019-03-15T12:16:34.566Z,51.39
2019-03-15T12:17:34.558Z,51.48
2019-03-15T12:18:34.647Z,51.77
2019-03-15T12:19:35.138Z,51.10
2019-03-15T12:20:34.595Z,51.10
2019-03-15T12:21:34.701Z,51.10
2019-03-15T12:22:34.605Z,51.20
2019-03-15T12:23:34.620Z,51.32
2019-03-15T12:24:34.682Z,51.29
2019-03-15T12:25:34.678Z,51.39
2019-03-15T12:26:40.107Z,51.48
2019-03-15T12:27:34.702Z,51.48
2019-03-15T12:28:34.654Z,51.48
2019-03-15T12:29:34.664Z,51.97
2019-03-15T12:30:34.758Z,52.54
2019-03-15T12:31:34.676Z,51.84
2019-03-15T12:32:34.695Z,52.13
2019-03-15T12:33:34.683Z,52.32
2019-03-15T12:34:34.706Z,52.13
2019-03-15T12:35:34.804Z,52.42
2019-03-15T12:36:34.709Z,52.13
2019-03-15T12:37:34.741Z,52.61
2019-03-15T12:38:34.754Z,52.22
2019-03-15T12:39:34.771Z,52.51
2019-03-15T12:40:34.751Z,52.51
2019-03-15T12:41:34.777Z,52.61
2019-03-15T12:42:34.758Z,53.47
2019-03-15T12:43:34.770Z,53.75
2019-03-15T12:44:34.778Z,54.59
2019-03-15T12:45:34.825Z,54.97
2019-03-15T12:46:34.846Z,55.26
2019-03-15T12:47:34.817Z,56.21
2019-03-15T12:48:34.833Z,56.79
2019-03-15T12:49:34.823Z,56.31
2019-03-15T12:50:34.843Z,56.09
2019-03-15T12:51:34.876Z,56.38
2019-03-15T12:52:46.339Z,56.57